Time;durP1;ratioP1;P1;durP2;ratioP2;P2;SDS_P1;SDS_P2;PMS_P1;PMS_P2;Temp;Humidity;BMP_temperature;BMP_pressure;BME280_temperature;BME280_humidity;BME280_pressure;Samples;Min_cycle;Max_cycle;Signal;HPM_P1;HPM_P2
2021/05/09 00:00:59;;;;;;;6.45;5.85;;;8.70;65.50;;;;;;5118683;28;20118;-67
2021/05/09 00:03:31;;;;;;;6.32;5.72;;;8.70;66.20;;;;;;5119836;28;20696;-67
2021/05/09 00:06:03;;;;;;;7.25;6.00;;;8.70;65.60;;;;;;5119431;29;20039;-68
2021/05/09 00:08:35;;;;;;;6.55;5.95;;;8.70;64.10;;;;;;5119517;29;20576;-70
2021/05/09 00:11:06;;;;;;;6.68;5.80;;;8.70;63.70;;;;;;5119301;29;20043;-67
2021/05/09 00:13:38;;;;;;;6.50;5.90;;;8.70;64.30;;;;;;5120049;29;20082;-68
2021/05/09 00:16:10;;;;;;;7.03;5.78;;;8.70;63.30;;;;;;5119565;29;20047;-67
2021/05/09 00:18:41;;;;;;;6.47;5.88;;;8.70;63.20;;;;;;5118358;29;20043;-67
2021/05/09 00:21:13;;;;;;;6.13;5.53;;;8.70;63.30;;;;;;5117652;29;20845;-67
2021/05/09 00:23:44;;;;;;;6.43;5.82;;;8.70;62.80;;;;;;5119651;29;20035;-68
2021/05/09 00:26:16;;;;;;;7.07;5.82;;;8.70;64.80;;;;;;5117783;28;20039;-68
2021/05/09 00:28:47;;;;;;;6.50;5.90;;;8.60;64.90;;;;;;5119101;29;20051;-67
2021/05/09 00:31:19;;;;;;;6.18;5.68;;;8.50;64.20;;;;;;5118597;29;20074;-67
2021/05/09 00:33:50;;;;;;;6.20;5.60;;;8.50;63.70;;;;;;5119466;29;20575;-67
2021/05/09 00:36:22;;;;;;;6.50;5.90;;;8.50;63.30;;;;;;5105372;29;20045;-67
2021/05/09 00:38:53;;;;;;;6.97;6.07;;;8.60;63.30;;;;;;5118009;28;20043;-67
2021/05/09 00:41:25;;;;;;;6.43;5.70;;;8.50;64.60;;;;;;5118613;29;20050;-67
2021/05/09 00:43:56;;;;;;;7.13;6.03;;;8.40;66.00;;;;;;5107031;28;20086;-68
2021/05/09 00:46:28;;;;;;;6.85;6.00;;;8.20;66.30;;;;;;5101235;29;20449;-67
2021/05/09 00:49:02;;;;;;;6.30;5.70;;;8.20;66.30;;;;;;5116967;29;20078;-68
2021/05/09 00:51:33;;;;;;;6.63;6.03;;;8.10;68.10;;;;;;5100205;29;20051;-68
2021/05/09 00:54:05;;;;;;;6.65;6.05;;;8.10;67.20;;;;;;5101324;29;20110;-68
2021/05/09 00:56:38;;;;;;;6.30;5.70;;;8.10;65.80;;;;;;5118009;29;20079;-68
2021/05/09 00:59:10;;;;;;;7.10;6.38;;;8.10;64.40;;;;;;5101054;29;20114;-68
2021/05/09 01:01:44;;;;;;;6.60;6.00;;;8.10;64.40;;;;;;5117384;28;20524;-69
2021/05/09 01:04:16;;;;;;;7.05;6.45;;;8.10;64.50;;;;;;5101091;29;20047;-68
2021/05/09 01:06:49;;;;;;;6.85;6.13;;;8.20;64.00;;;;;;5101052;29;20448;-67
2021/05/09 01:09:21;;;;;;;7.28;6.35;;;8.20;64.10;;;;;;5118610;29;20121;-67
2021/05/09 01:11:55;;;;;;;7.10;6.50;;;8.20;64.10;;;;;;5109038;28;20599;-67
2021/05/09 01:14:26;;;;;;;7.03;6.40;;;8.20;63.20;;;;;;5104803;29;20058;-68
2021/05/09 01:16:58;;;;;;;6.97;6.28;;;8.10;64.70;;;;;;5117262;28;20047;-68
2021/05/09 01:19:30;;;;;;;7.40;6.70;;;8.10;65.10;;;;;;5115419;28;20077;-68
2021/05/09 01:22:04;;;;;;;6.90;6.30;;;8.10;63.80;;;;;;5117363;29;20042;-68
2021/05/09 01:24:36;;;;;;;6.97;6.30;;;8.00;65.30;;;;;;5117087;29;20467;-67
2021/05/09 01:27:08;;;;;;;6.88;6.28;;;7.90;66.00;;;;;;5117165;29;20782;-67
2021/05/09 01:29:40;;;;;;;7.20;6.50;;;7.90;66.60;;;;;;5117369;28;20050;-68
2021/05/09 01:32:12;;;;;;;6.90;6.30;;;7.80;66.10;;;;;;5114289;28;20110;-68
2021/05/09 01:34:44;;;;;;;6.72;6.13;;;7.80;66.30;;;;;;5117380;29;20047;-68
2021/05/09 01:37:16;;;;;;;6.88;6.28;;;7.70;65.70;;;;;;5115477;28;20055;-68
2021/05/09 01:39:47;;;;;;;6.75;6.05;;;7.80;64.50;;;;;;5091152;29;20440;-67
2021/05/09 01:42:19;;;;;;;6.45;5.90;;;7.80;64.10;;;;;;5115869;28;20118;-67
2021/05/09 01:44:53;;;;;;;6.53;5.93;;;7.90;63.70;;;;;;5101070;29;20066;-67
2021/05/09 01:47:25;;;;;;;6.40;5.80;;;7.80;64.20;;;;;;5116696;28;20044;-67
2021/05/09 01:49:57;;;;;;;8.05;6.45;;;7.80;64.40;;;;;;5118168;29;20071;-68
2021/05/09 01:52:29;;;;;;;6.70;6.10;;;7.80;65.60;;;;;;5116197;28;20043;-67
2021/05/09 01:55:08;;;;;;;6.60;6.00;;;7.80;64.70;;;;;;5099786;29;20092;-70
2021/05/09 01:57:41;;;;;;;6.85;6.25;;;7.80;64.70;;;;;;5115403;28;20485;-67
2021/05/09 02:00:19;;;;;;;8.02;6.15;;;7.70;64.90;;;;;;5107121;29;20663;-67
2021/05/09 02:02:56;;;;;;;6.55;5.95;;;7.70;64.20;;;;;;5100667;29;20047;-67
2021/05/09 02:05:33;;;;;;;6.97;6.35;;;7.70;64.50;;;;;;5099701;29;20051;-67
2021/05/09 02:08:05;;;;;;;6.90;6.30;;;7.80;64.20;;;;;;5116540;28;20031;-67
2021/05/09 02:10:39;;;;;;;6.43;5.82;;;7.80;65.00;;;;;;5116848;29;20047;-67
2021/05/09 02:13:11;;;;;;;6.68;6.07;;;7.80;64.10;;;;;;5117909;29;20122;-67
2021/05/09 02:15:55;;;;;;;6.80;6.20;;;7.80;63.90;;;;;;5087456;29;20047;-67
2021/05/09 02:18:27;;;;;;;7.40;6.55;;;7.80;64.00;;;;;;5116412;28;20125;-67
2021/05/09 02:20:59;;;;;;;6.63;6.03;;;7.80;63.70;;;;;;5116936;29;20048;-68
2021/05/09 02:23:30;;;;;;;6.93;6.32;;;7.80;64.50;;;;;;5100330;29;20103;-70
2021/05/09 02:26:03;;;;;;;6.93;6.22;;;7.70;64.60;;;;;;5101594;29;20051;-68
2021/05/09 02:28:35;;;;;;;7.65;5.90;;;7.60;65.00;;;;;;5115932;28;20051;-68
2021/05/09 02:31:11;;;;;;;6.57;5.97;;;7.60;65.10;;;;;;5097261;29;20050;-69
2021/05/09 02:33:42;;;;;;;9.35;6.32;;;7.60;64.50;;;;;;5098752;28;20051;-67
2021/05/09 02:36:14;;;;;;;7.80;5.90;;;7.60;64.20;;;;;;5116842;29;20057;-69
2021/05/09 02:38:45;;;;;;;6.50;5.90;;;7.60;64.40;;;;;;5114093;28;20039;-70
2021/05/09 02:41:19;;;;;;;6.78;6.18;;;7.70;64.20;;;;;;5115301;29;20050;-68
2021/05/09 02:43:50;;;;;;;6.60;6.00;;;7.70;63.30;;;;;;5117379;29;20090;-68
2021/05/09 02:46:22;;;;;;;6.85;6.25;;;7.80;63.60;;;;;;5116481;29;20528;-68
2021/05/09 02:48:53;;;;;;;6.82;6.22;;;7.70;64.10;;;;;;5083702;29;20051;-68
2021/05/09 02:51:25;;;;;;;6.90;6.30;;;7.70;64.60;;;;;;5099052;29;20154;-67
2021/05/09 02:53:57;;;;;;;6.97;6.35;;;7.60;65.00;;;;;;5115560;29;20960;-67
2021/05/09 02:56:29;;;;;;;6.93;6.32;;;7.60;64.90;;;;;;5114775;28;20070;-67
2021/05/09 02:59:01;;;;;;;6.88;6.18;;;7.60;65.10;;;;;;5108538;29;20528;-70
2021/05/09 03:01:35;;;;;;;7.05;6.40;;;7.60;65.00;;;;;;5084054;29;20074;-67
2021/05/09 03:04:07;;;;;;;7.07;6.35;;;7.60;65.00;;;;;;5099675;29;20043;-68
2021/05/09 03:06:38;;;;;;;6.38;5.78;;;7.60;64.80;;;;;;5100694;29;20130;-67
2021/05/09 03:09:14;;;;;;;5.90;5.40;;;7.70;64.70;;;;;;5103362;29;20043;-67
2021/05/09 03:11:47;;;;;;;5.97;5.40;;;7.70;63.80;;;;;;5120818;29;20448;-67
2021/05/09 03:14:19;;;;;;;9.90;6.10;;;7.80;63.10;;;;;;5119425;28;20134;-67
2021/05/09 03:16:51;;;;;;;6.10;5.50;;;7.90;63.00;;;;;;5118390;29;20390;-67
2021/05/09 03:19:22;;;;;;;6.95;5.75;;;8.00;63.10;;;;;;5120547;29;20108;-67
2021/05/09 03:21:54;;;;;;;6.35;5.70;;;8.00;64.00;;;;;;5120592;29;20035;-67
2021/05/09 03:24:25;;;;;;;6.30;5.70;;;7.90;64.10;;;;;;5120528;29;20389;-67
2021/05/09 03:26:56;;;;;;;6.32;5.72;;;7.90;64.70;;;;;;5102680;29;20047;-68
2021/05/09 03:29:28;;;;;;;7.55;6.30;;;7.80;64.70;;;;;;5102713;29;20443;-67
2021/05/09 03:32:00;;;;;;;6.72;5.65;;;7.80;65.10;;;;;;5101984;29;20401;-67
2021/05/09 03:34:31;;;;;;;6.30;5.70;;;7.80;65.10;;;;;;5120711;28;20039;-67
2021/05/09 03:37:03;;;;;;;6.80;6.00;;;7.80;65.30;;;;;;5117804;28;20159;-67
2021/05/09 03:39:34;;;;;;;6.28;5.68;;;7.90;64.80;;;;;;5120406;29;20098;-68
2021/05/09 03:42:06;;;;;;;6.43;5.82;;;7.80;65.50;;;;;;5120237;29;20605;-69
2021/05/09 03:44:37;;;;;;;6.65;5.70;;;7.80;66.30;;;;;;5120094;29;20050;-67
2021/05/09 03:47:09;;;;;;;6.63;5.95;;;7.80;65.40;;;;;;5119288;29;20051;-67
2021/05/09 03:49:41;;;;;;;6.18;5.57;;;7.80;64.70;;;;;;5120232;29;20074;-67
2021/05/09 03:52:13;;;;;;;6.40;5.80;;;7.70;64.10;;;;;;5120090;29;20605;-69
2021/05/09 03:54:44;;;;;;;6.18;5.57;;;7.70;65.00;;;;;;5103452;29;20058;-68
2021/05/09 03:57:15;;;;;;;6.47;5.90;;;7.60;64.40;;;;;;5118552;28;20048;-71
2021/05/09 03:59:47;;;;;;;7.07;6.47;;;7.60;65.10;;;;;;5119446;29;20058;-71
2021/05/09 04:02:20;;;;;;;6.60;6.00;;;7.60;66.50;;;;;;5119691;29;20047;-68
2021/05/09 04:04:52;;;;;;;6.40;5.80;;;7.60;66.20;;;;;;5118653;29;20141;-68
2021/05/09 04:07:23;;;;;;;6.82;6.15;;;7.70;65.90;;;;;;5118977;29;20441;-68
2021/05/09 04:09:55;;;;;;;6.75;6.13;;;7.70;65.40;;;;;;5109110;29;20513;-68
2021/05/09 04:12:26;;;;;;;6.90;6.30;;;7.70;65.60;;;;;;5119173;28;20043;-68
2021/05/09 04:14:59;;;;;;;7.03;6.32;;;7.70;66.00;;;;;;5102533;29;20059;-68
2021/05/09 04:17:30;;;;;;;6.95;6.05;;;7.80;66.20;;;;;;5116625;28;20043;-68
2021/05/09 04:20:03;;;;;;;6.50;5.90;;;7.90;65.60;;;;;;5117994;29;20563;-69
2021/05/09 04:22:34;;;;;;;6.90;6.30;;;7.90;64.40;;;;;;5119212;29;20131;-68
2021/05/09 04:25:07;;;;;;;6.60;6.00;;;7.90;65.40;;;;;;5118129;28;20814;-70
2021/05/09 04:27:39;;;;;;;6.60;5.88;;;7.80;66.20;;;;;;5118537;28;20059;-69
2021/05/09 04:30:11;;;;;;;10.20;5.97;;;7.90;66.10;;;;;;5118087;28;20126;-68
2021/05/09 04:32:42;;;;;;;6.70;5.97;;;7.90;65.70;;;;;;5119519;28;20410;-68
2021/05/09 04:35:13;;;;;;;6.70;5.68;;;8.10;65.30;;;;;;5119015;29;20071;-68
2021/05/09 04:37:47;;;;;;;6.93;6.32;;;8.10;64.80;;;;;;5118660;29;20059;-68
2021/05/09 04:40:19;;;;;;;6.85;6.20;;;8.20;65.30;;;;;;5118500;29;20047;-69
2021/05/09 04:42:51;;;;;;;6.68;6.07;;;8.40;65.00;;;;;;5119420;29;20035;-68
2021/05/09 04:45:22;;;;;;;6.90;6.30;;;8.50;64.80;;;;;;5117356;29;20110;-68
2021/05/09 04:47:54;;;;;;;6.70;6.10;;;8.70;65.30;;;;;;5116954;28;20050;-68
2021/05/09 04:50:25;;;;;;;6.72;6.13;;;8.80;65.00;;;;;;5100735;29;20051;-68
2021/05/09 04:52:57;;;;;;;6.57;5.97;;;9.00;64.50;;;;;;5116252;29;20110;-69
2021/05/09 04:55:29;;;;;;;7.05;6.45;;;9.20;64.10;;;;;;5117922;29;20052;-69
2021/05/09 04:58:00;;;;;;;9.30;6.50;;;9.40;64.10;;;;;;5116736;29;20050;-69
2021/05/09 05:00:32;;;;;;;6.88;6.18;;;9.50;64.80;;;;;;5116168;29;20050;-68
2021/05/09 05:03:03;;;;;;;8.65;7.95;;;9.70;64.40;;;;;;5100696;29;20047;-68
2021/05/09 05:05:35;;;;;;;7.47;6.70;;;9.80;64.00;;;;;;5117136;29;20079;-66
2021/05/09 05:08:06;;;;;;;6.82;6.22;;;10.00;53.70;;;;;;5117351;29;20035;-66
2021/05/09 05:10:37;;;;;;;7.00;6.40;;;10.20;52.30;;;;;;5101321;29;20047;-66
2021/05/09 05:13:31;;;;;;;7.50;6.85;;;10.40;55.30;;;;;;5118218;29;20039;-66
2021/05/09 05:16:05;;;;;;;7.30;6.60;;;10.50;57.70;;;;;;5117108;29;20047;-67
2021/05/09 05:18:37;;;;;;;8.20;6.50;;;10.60;58.60;;;;;;5117751;29;20052;-68
2021/05/09 05:21:09;;;;;;;8.88;6.78;;;10.70;60.30;;;;;;5116452;29;20046;-71
2021/05/09 05:23:41;;;;;;;7.95;7.15;;;10.80;60.80;;;;;;5106800;29;20051;-69
2021/05/09 05:26:13;;;;;;;7.90;7.10;;;11.00;60.20;;;;;;5116821;29;20046;-69
2021/05/09 05:28:44;;;;;;;9.93;9.13;;;11.10;60.30;;;;;;5116716;29;20106;-70
2021/05/09 05:31:15;;;;;;;7.90;7.20;;;11.30;50.90;;;;;;5100371;29;20039;-69
2021/05/09 05:33:47;;;;;;;7.28;6.63;;;11.60;46.70;;;;;;5118348;29;20080;-69
2021/05/09 05:36:19;;;;;;;7.38;6.78;;;11.70;45.80;;;;;;5105834;29;20497;-69
2021/05/09 05:38:51;;;;;;;8.50;7.28;;;11.90;45.70;;;;;;5101913;29;20043;-68
2021/05/09 05:41:22;;;;;;;8.30;7.50;;;12.00;49.10;;;;;;5115399;29;20046;-69
2021/05/09 05:43:53;;;;;;;8.10;7.40;;;12.10;51.50;;;;;;5108644;29;20546;-70
2021/05/09 05:46:27;;;;;;;7.30;6.70;;;12.30;48.20;;;;;;5119103;29;20051;-67
2021/05/09 05:48:59;;;;;;;8.18;7.47;;;12.40;45.30;;;;;;5100710;29;20039;-68
2021/05/09 05:51:30;;;;;;;8.43;7.72;;;12.50;50.90;;;;;;5116568;29;20050;-68
2021/05/09 05:54:02;;;;;;;10.27;9.48;;;12.60;56.50;;;;;;5107736;29;20098;-67
2021/05/09 05:56:34;;;;;;;8.57;7.78;;;12.80;55.20;;;;;;5118476;29;20521;-67
2021/05/09 05:59:06;;;;;;;9.15;8.18;;;13.00;57.50;;;;;;5115440;29;20050;-68
2021/05/09 06:01:37;;;;;;;8.68;7.97;;;13.20;58.30;;;;;;5117950;29;20406;-67
2021/05/09 06:04:09;;;;;;;8.68;7.90;;;13.20;58.60;;;;;;5118852;29;20078;-67
2021/05/09 06:06:40;;;;;;;8.40;7.70;;;13.20;56.00;;;;;;5117605;29;20059;-68
2021/05/09 06:09:12;;;;;;;8.77;7.40;;;13.20;55.60;;;;;;5118094;29;20513;-69
2021/05/09 06:11:43;;;;;;;16.73;9.05;;;13.40;56.00;;;;;;5116571;29;20050;-68
2021/05/09 06:14:15;;;;;;;8.43;7.57;;;13.60;59.70;;;;;;5117914;29;20043;-71
2021/05/09 06:16:55;;;;;;;;;;;13.70;49.50;;;;;;5117899;29;20047;-68
2021/05/09 06:19:27;;;;;;;8.18;7.43;;;13.90;45.80;;;;;;5118238;29;19929;-68
2021/05/09 06:21:58;;;;;;;8.77;7.82;;;14.10;41.70;;;;;;5117396;28;20039;-68
2021/05/09 06:24:30;;;;;;;8.50;7.80;;;14.40;45.70;;;;;;5118828;29;20043;-65
2021/05/09 06:27:01;;;;;;;9.00;8.20;;;14.50;49.50;;;;;;5100213;29;20054;-65
2021/05/09 06:29:33;;;;;;;8.32;7.63;;;14.70;53.70;;;;;;5118733;29;20460;-65
2021/05/09 06:32:04;;;;;;;8.20;7.40;;;14.80;50.10;;;;;;5117295;29;20513;-65
2021/05/09 06:34:37;;;;;;;10.68;9.85;;;14.90;50.50;;;;;;5107623;29;20055;-65
2021/05/09 06:37:13;;;;;;;8.80;8.00;;;15.10;52.50;;;;;;5117553;29;20082;-67
2021/05/09 06:39:44;;;;;;;8.35;7.65;;;15.20;51.60;;;;;;5118088;29;20417;-66
2021/05/09 06:42:15;;;;;;;8.88;8.15;;;15.30;49.70;;;;;;5116481;28;20040;-65
2021/05/09 06:44:52;;;;;;;8.70;8.00;;;15.50;53.10;;;;;;5119234;28;20047;-65
2021/05/09 06:47:24;;;;;;;9.00;8.30;;;15.60;49.60;;;;;;5116146;29;20043;-65
2021/05/09 06:49:55;;;;;;;9.18;8.48;;;15.80;51.70;;;;;;5117321;29;20067;-66
2021/05/09 06:52:27;;;;;;;11.60;10.70;;;15.80;47.20;;;;;;5116672;29;20413;-65
2021/05/09 06:55:02;;;;;;;9.10;8.40;;;15.90;46.50;;;;;;5115038;29;20109;-66
2021/05/09 06:57:33;;;;;;;9.50;8.80;;;16.10;42.50;;;;;;5116382;29;20078;-65
2021/05/09 07:00:07;;;;;;;9.95;9.15;;;16.20;43.50;;;;;;5115220;29;20090;-65
2021/05/09 07:02:38;;;;;;;9.10;8.40;;;16.20;43.70;;;;;;5116000;29;20039;-66
2021/05/09 07:05:10;;;;;;;9.32;8.63;;;16.40;43.50;;;;;;5116660;29;20062;-67
2021/05/09 07:08:00;;;;;;;9.80;9.00;;;16.50;44.90;;;;;;5116056;29;20417;-67
2021/05/09 07:10:34;;;;;;;9.60;8.90;;;16.70;46.00;;;;;;5099673;29;20570;-67
2021/05/09 07:13:05;;;;;;;10.00;9.13;;;16.80;38.40;;;;;;5118077;29;20102;-66
2021/05/09 07:15:39;;;;;;;9.85;9.05;;;17.00;44.00;;;;;;5117042;29;20474;-66
2021/05/09 07:18:20;;;;;;;10.93;9.85;;;17.20;46.20;;;;;;5117016;29;20466;-66
2021/05/09 07:20:56;;;;;;;10.45;9.48;;;17.40;47.10;;;;;;5116457;28;20430;-66
2021/05/09 07:23:28;;;;;;;10.80;10.00;;;17.60;46.40;;;;;;5118561;29;20417;-67
2021/05/09 07:26:00;;;;;;;10.57;9.68;;;17.70;50.00;;;;;;5117336;29;20093;-66
2021/05/09 07:28:31;;;;;;;10.43;9.52;;;17.90;47.30;;;;;;5115405;28;20051;-67
2021/05/09 07:31:03;;;;;;;10.52;9.73;;;18.00;47.50;;;;;;5100547;29;20067;-68
2021/05/09 07:33:34;;;;;;;10.15;9.25;;;18.10;48.50;;;;;;5117249;29;20051;-68
2021/05/09 07:36:06;;;;;;;9.90;9.20;;;18.30;44.70;;;;;;5117282;29;20050;-67
2021/05/09 07:38:37;;;;;;;10.10;9.23;;;18.50;44.50;;;;;;5117296;29;20140;-67
2021/05/09 07:41:09;;;;;;;9.90;9.18;;;18.60;45.60;;;;;;5117315;29;20079;-67
2021/05/09 07:43:40;;;;;;;10.52;9.73;;;18.70;43.40;;;;;;5117596;29;20051;-67
2021/05/09 07:46:12;;;;;;;10.65;9.85;;;18.80;41.10;;;;;;5116977;29;20039;-67
2021/05/09 07:48:44;;;;;;;10.38;9.57;;;18.90;44.40;;;;;;5115557;28;20070;-68
2021/05/09 07:51:15;;;;;;;10.75;9.95;;;19.00;45.20;;;;;;5100345;29;20047;-67
2021/05/09 07:53:47;;;;;;;10.50;9.70;;;19.20;45.20;;;;;;5117440;28;21457;-68
2021/05/09 07:56:19;;;;;;;10.38;9.57;;;19.30;44.10;;;;;;5121249;29;20564;-68
2021/05/09 07:58:50;;;;;;;10.60;9.80;;;19.30;40.80;;;;;;5093419;29;20058;-68
2021/05/09 08:01:21;;;;;;;10.82;10.02;;;19.50;42.60;;;;;;5105129;29;20046;-68
2021/05/09 08:03:53;;;;;;;10.93;10.13;;;19.50;44.00;;;;;;5119614;29;20457;-67
2021/05/09 08:06:25;;;;;;;11.20;10.40;;;19.70;41.90;;;;;;5120912;29;20607;-67
2021/05/09 08:08:56;;;;;;;11.18;10.38;;;19.90;41.00;;;;;;5120758;29;20047;-67
2021/05/09 08:11:28;;;;;;;10.68;9.82;;;19.90;40.80;;;;;;5119201;29;20059;-66
2021/05/09 08:13:59;;;;;;;10.82;10.02;;;20.10;39.60;;;;;;5119096;29;20066;-67
2021/05/09 08:16:31;;;;;;;11.05;10.15;;;20.20;36.30;;;;;;5120540;29;20179;-67
2021/05/09 08:19:02;;;;;;;11.27;10.48;;;20.30;36.20;;;;;;5103053;29;20047;-67
2021/05/09 08:21:34;;;;;;;11.13;10.32;;;20.40;37.20;;;;;;5097722;29;20055;-67
2021/05/09 08:24:06;;;;;;;11.35;10.45;;;20.50;35.80;;;;;;5118701;29;20046;-67
2021/05/09 08:26:37;;;;;;;11.02;10.23;;;20.70;36.60;;;;;;5103563;29;20126;-66
2021/05/09 08:29:09;;;;;;;11.93;11.02;;;20.80;34.70;;;;;;5100037;29;20312;-66
2021/05/09 08:31:40;;;;;;;11.38;10.57;;;20.90;37.60;;;;;;5119425;29;20133;-67
2021/05/09 08:34:12;;;;;;;11.75;10.85;;;21.00;34.00;;;;;;5087180;29;20051;-66
2021/05/09 08:36:44;;;;;;;11.10;10.30;;;21.10;36.00;;;;;;5119549;29;20101;-66
2021/05/09 08:39:15;;;;;;;11.90;11.00;;;21.20;35.40;;;;;;5121067;29;20498;-66
2021/05/09 08:41:48;;;;;;;11.50;10.70;;;21.30;36.10;;;;;;5102136;29;20050;-66
2021/05/09 08:44:20;;;;;;;11.32;10.52;;;21.40;31.00;;;;;;5119868;29;20044;-66
2021/05/09 08:46:52;;;;;;;11.02;10.23;;;21.60;34.10;;;;;;5119666;29;20059;-66
2021/05/09 08:49:28;;;;;;;12.00;11.10;;;21.60;29.20;;;;;;5103834;29;20046;-66
2021/05/09 08:51:59;;;;;;;11.70;10.80;;;21.80;29.80;;;;;;5117979;29;20047;-66
2021/05/09 08:54:31;;;;;;;11.57;10.77;;;21.90;24.20;;;;;;5100453;29;20051;-67
2021/05/09 08:57:06;;;;;;;11.55;10.65;;;21.90;28.80;;;;;;5117474;29;20480;-67
2021/05/09 08:59:37;;;;;;;11.10;10.20;;;22.10;29.10;;;;;;5119795;29;20497;-66
2021/05/09 09:02:13;;;;;;;11.30;10.32;;;22.10;27.90;;;;;;5119524;29;20047;-66
2021/05/09 09:04:46;;;;;;;11.00;10.20;;;22.20;30.60;;;;;;5101613;29;20043;-66
2021/05/09 09:07:18;;;;;;;11.32;10.48;;;22.40;28.10;;;;;;5119228;29;20074;-67
2021/05/09 09:09:52;;;;;;;11.80;10.90;;;22.50;30.70;;;;;;5120197;29;20103;-66
2021/05/09 09:12:35;;;;;;;11.88;10.98;;;22.60;28.30;;;;;;5119465;29;20043;-67
2021/05/09 09:15:07;;;;;;;11.38;10.57;;;22.70;28.70;;;;;;5101110;29;20043;-67
2021/05/09 09:17:39;;;;;;;11.50;10.70;;;22.80;24.80;;;;;;5104162;29;20047;-67
2021/05/09 09:20:18;;;;;;;11.13;10.32;;;22.90;27.60;;;;;;5102617;29;20043;-66
2021/05/09 09:22:57;;;;;;;11.50;10.60;;;23.00;24.20;;;;;;5117102;29;20098;-67
2021/05/09 09:25:34;;;;;;;12.05;11.15;;;23.00;23.70;;;;;;5115338;29;20425;-67
2021/05/09 09:28:05;;;;;;;11.55;10.65;;;23.10;26.70;;;;;;5118700;29;20054;-66
2021/05/09 09:30:54;;;;;;;12.18;11.27;;;23.20;25.70;;;;;;5118106;29;20047;-67
2021/05/09 09:33:25;;;;;;;12.02;10.98;;;23.30;29.50;;;;;;5117879;29;20047;-67
2021/05/09 09:35:59;;;;;;;11.85;11.02;;;23.40;27.20;;;;;;5117749;29;20050;-66
2021/05/09 09:38:32;;;;;;;14.43;11.38;;;23.50;26.80;;;;;;5117517;29;20126;-67
2021/05/09 09:41:14;;;;;;;12.25;11.40;;;23.50;23.60;;;;;;5101790;29;20054;-66
2021/05/09 09:44:11;;;;;;;12.35;11.45;;;23.60;27.60;;;;;;5101979;29;20121;-66
2021/05/09 09:46:53;;;;;;;11.95;11.05;;;23.70;24.50;;;;;;5101852;29;20505;-67
2021/05/09 09:49:38;;;;;;;12.00;11.18;;;23.80;25.80;;;;;;5118225;29;20050;-67
2021/05/09 09:52:10;;;;;;;12.45;11.55;;;23.80;26.20;;;;;;5118346;29;20051;-67
2021/05/09 09:54:46;;;;;;;12.88;11.98;;;23.80;22.40;;;;;;5119280;29;20047;-66
2021/05/09 09:57:22;;;;;;;13.00;11.90;;;23.90;26.90;;;;;;5084373;28;20055;-66
2021/05/09 10:00:07;;;;;;;13.40;12.40;;;24.00;25.50;;;;;;5119147;29;20083;-67
2021/05/09 10:02:41;;;;;;;13.07;11.98;;;24.10;23.50;;;;;;5117511;29;20110;-67
2021/05/09 10:05:12;;;;;;;13.23;12.32;;;24.10;30.00;;;;;;5117739;28;20043;-67
2021/05/09 10:07:44;;;;;;;13.10;12.05;;;24.30;27.00;;;;;;5091101;29;20054;-66
2021/05/09 10:10:16;;;;;;;12.57;11.52;;;24.40;29.20;;;;;;5099571;29;20862;-66
2021/05/09 10:12:50;;;;;;;12.73;11.82;;;24.50;23.40;;;;;;5085177;29;20106;-68
2021/05/09 10:15:22;;;;;;;13.02;12.07;;;24.50;24.00;;;;;;5100627;29;20051;-66
2021/05/09 10:17:54;;;;;;;12.68;11.75;;;24.50;25.20;;;;;;5115869;28;20043;-66
2021/05/09 10:20:25;;;;;;;14.32;13.23;;;24.60;26.40;;;;;;5116639;29;20042;-67
2021/05/09 10:23:08;;;;;;;13.48;12.48;;;24.70;19.80;;;;;;5115718;29;20038;-68
2021/05/09 10:25:46;;;;;;;12.63;11.73;;;24.70;24.00;;;;;;5117281;29;20043;-66
2021/05/09 10:28:21;;;;;;;13.25;12.05;;;24.80;18.50;;;;;;5117342;29;20461;-66
2021/05/09 10:30:55;;;;;;;13.05;12.15;;;24.80;21.40;;;;;;5116707;29;20055;-66
2021/05/09 10:33:41;;;;;;;12.95;12.05;;;25.00;25.10;;;;;;5090969;29;20083;-66
2021/05/09 10:36:16;;;;;;;12.48;11.57;;;25.10;22.00;;;;;;5115864;29;20075;-66
2021/05/09 10:39:13;;;;;;;12.98;12.07;;;25.20;25.40;;;;;;5116517;29;20043;-66
2021/05/09 10:41:54;;;;;;;12.77;11.88;;;25.20;18.20;;;;;;5115434;29;20066;-66
2021/05/09 10:44:38;;;;;;;12.73;11.52;;;25.20;20.00;;;;;;5091853;29;20059;-66
2021/05/09 10:47:17;;;;;;;12.85;11.95;;;25.30;20.20;;;;;;5116583;29;20908;-66
2021/05/09 10:50:24;;;;;;;12.73;11.83;;;25.40;20.00;;;;;;5100538;29;20047;-67
2021/05/09 10:52:56;;;;;;;12.95;12.05;;;25.50;20.50;;;;;;5115879;29;20051;-66
2021/05/09 10:55:37;;;;;;;13.50;12.50;;;25.60;20.90;;;;;;5100272;29;20051;-66
2021/05/09 10:58:14;;;;;;;13.40;12.50;;;25.80;19.10;;;;;;5117070;29;20102;-67
2021/05/09 11:00:55;;;;;;;14.00;13.00;;;25.80;18.30;;;;;;5116168;28;20541;-66
2021/05/09 11:03:39;;;;;;;13.30;12.35;;;26.00;19.40;;;;;;5117526;29;20047;-66
2021/05/09 11:06:14;;;;;;;13.40;12.50;;;26.10;19.80;;;;;;5117525;29;20051;-66
2021/05/09 11:08:47;;;;;;;13.43;12.52;;;26.20;16.30;;;;;;5117099;28;20039;-69
2021/05/09 11:11:21;;;;;;;14.00;13.00;;;26.30;23.90;;;;;;5115227;29;20047;-66
2021/05/09 11:14:02;;;;;;;13.95;12.90;;;26.30;17.30;;;;;;5115689;29;20043;-66
2021/05/09 11:16:40;;;;;;;14.30;13.30;;;26.50;24.20;;;;;;5117343;29;20142;-66
2021/05/09 11:19:16;;;;;;;13.85;12.85;;;26.60;19.30;;;;;;5113293;29;20051;-67
2021/05/09 11:21:53;;;;;;;13.60;12.70;;;26.70;24.40;;;;;;5115916;29;20047;-67
2021/05/09 11:24:32;;;;;;;13.63;12.68;;;27.00;25.80;;;;;;5115462;29;20166;-66
2021/05/09 11:27:15;;;;;;;13.63;12.63;;;27.10;19.10;;;;;;5116101;28;20194;-66
2021/05/09 11:29:52;;;;;;;13.68;12.75;;;27.00;18.80;;;;;;5121498;29;20509;-65
2021/05/09 11:32:24;;;;;;;14.05;13.05;;;27.10;23.50;;;;;;5120612;29;20039;-67
2021/05/09 11:34:59;;;;;;;14.25;13.15;;;27.40;20.60;;;;;;5121835;29;20533;-66
2021/05/09 11:37:40;;;;;;;13.73;12.75;;;27.60;17.30;;;;;;5102000;29;20051;-67
2021/05/09 11:40:14;;;;;;;14.23;13.13;;;27.50;18.60;;;;;;5105262;29;20070;-67
2021/05/09 11:42:46;;;;;;;14.30;13.30;;;27.60;20.00;;;;;;5122266;29;20072;-67
2021/05/09 11:45:25;;;;;;;14.20;13.20;;;27.90;21.70;;;;;;5104251;29;20042;-67
2021/05/09 11:47:57;;;;;;;14.18;13.18;;;27.90;21.70;;;;;;5121655;29;20045;-67
2021/05/09 11:50:28;;;;;;;14.50;13.35;;;27.90;21.30;;;;;;5121397;29;20894;-67
2021/05/09 11:53:00;;;;;;;14.05;13.05;;;28.10;21.80;;;;;;5104878;29;20082;-67
2021/05/09 11:55:33;;;;;;;14.35;13.35;;;28.10;19.80;;;;;;5121784;29;20378;-67
2021/05/09 11:58:12;;;;;;;13.75;12.80;;;28.20;16.80;;;;;;5105091;29;20051;-67
2021/05/09 12:00:44;;;;;;;13.95;13.02;;;28.20;16.60;;;;;;5120901;28;20528;-67
2021/05/09 12:03:22;;;;;;;13.50;12.60;;;28.40;18.90;;;;;;5122082;29;20051;-66
2021/05/09 12:06:07;;;;;;;14.45;13.45;;;28.50;16.50;;;;;;5120931;28;20043;-68
2021/05/09 12:08:38;;;;;;;13.98;12.98;;;28.70;18.00;;;;;;5121406;29;20044;-67
2021/05/09 12:11:11;;;;;;;14.18;13.18;;;28.70;17.90;;;;;;5121367;28;20059;-66
2021/05/09 12:13:42;;;;;;;14.27;13.27;;;28.90;17.90;;;;;;5088907;29;20051;-67
2021/05/09 12:16:14;;;;;;;14.05;13.05;;;29.10;19.30;;;;;;5120866;29;20070;-66
2021/05/09 12:18:46;;;;;;;14.30;13.30;;;29.20;17.40;;;;;;5095098;29;20055;-67
2021/05/09 12:21:18;;;;;;;13.55;12.65;;;29.30;18.10;;;;;;5104137;29;20701;-67
2021/05/09 12:23:50;;;;;;;14.13;13.13;;;29.20;17.30;;;;;;5088700;29;20234;-66
2021/05/09 12:26:21;;;;;;;13.85;12.95;;;29.00;17.10;;;;;;5121317;29;20051;-67
2021/05/09 12:28:52;;;;;;;14.40;13.25;;;28.90;14.70;;;;;;5104634;29;20398;-66
2021/05/09 12:31:24;;;;;;;14.63;13.52;;;29.00;17.40;;;;;;5120852;29;20133;-67
2021/05/09 12:34:02;;;;;;;14.38;13.38;;;29.20;18.30;;;;;;5121157;28;20105;-66
2021/05/09 12:36:34;;;;;;;14.60;13.57;;;29.50;17.80;;;;;;5106830;29;20070;-67
2021/05/09 12:39:19;;;;;;;14.32;13.32;;;29.50;18.00;;;;;;5110264;28;21997;-66
2021/05/09 12:41:53;;;;;;;14.77;13.75;;;29.40;18.20;;;;;;5120752;29;20390;-66
2021/05/09 12:44:25;;;;;;;14.88;13.88;;;29.50;17.10;;;;;;5101171;29;20383;-66
2021/05/09 12:46:56;;;;;;;14.77;13.77;;;29.60;15.50;;;;;;5120417;29;20051;-66
2021/05/09 12:49:29;;;;;;;15.25;14.15;;;29.70;14.10;;;;;;5120589;28;20067;-67
2021/05/09 12:52:03;;;;;;;15.30;14.30;;;29.80;15.80;;;;;;5102384;29;20054;-67
2021/05/09 12:54:42;;;;;;;15.73;14.70;;;29.90;17.40;;;;;;5104652;29;20587;-67
2021/05/09 12:57:21;;;;;;;15.25;14.15;;;29.90;15.60;;;;;;5120339;29;20047;-67
2021/05/09 12:59:54;;;;;;;15.60;14.50;;;30.00;18.60;;;;;;5120344;29;20047;-67
2021/05/09 13:02:29;;;;;;;15.95;14.82;;;30.00;17.10;;;;;;5118854;28;20502;-67
2021/05/09 13:05:15;;;;;;;16.00;14.90;;;30.10;16.50;;;;;;5103301;29;20043;-67
2021/05/09 13:07:48;;;;;;;16.10;14.95;;;30.20;17.20;;;;;;5119828;29;20058;-67
2021/05/09 13:10:22;;;;;;;15.75;14.65;;;30.40;18.30;;;;;;5119793;29;20098;-66
2021/05/09 13:12:55;;;;;;;15.60;14.50;;;30.50;15.00;;;;;;5119559;29;20042;-67
2021/05/09 13:15:29;;;;;;;16.20;15.10;;;30.50;18.00;;;;;;5119882;29;20842;-67